Denver, Tennessee
Current Conditions -  °F | °C
As of 5:55 PM on Wednesday 22 Oct 2014 (Local Time) from KPVE Reporting Station
Clear Clear  
Wind Chill: 59°   Ceiling: Unl
Heat Index: 59°   Visibility: 10mi
Dew Point: 43°   Wind: 3mph
Humidity: 55%   Direction: 20°NNE
Pressure: 30.18"   Gusts: NA
Location:  36.0056°N, 87.9448°W
Report Text: KPVE 222255Z AUTO 02003KT 10SM CLR 15/06 A3018 RMK
Loading
Personal Weather Stations






























Interactive Weather Map
Tropical Storm Tracking
New forecast layout! Learn more

10-Day Weather Forecast

Advertisements
Track Severe Weather on mobile